Time;durP1;ratioP1;P1;durP2;ratioP2;P2;SDS_P1;SDS_P2;PMS_P1;PMS_P2;Temp;Humidity;BMP_temperature;BMP_pressure;BME280_temperature;BME280_humidity;BME280_pressure;Samples;Min_cycle;Max_cycle;Signal;HPM_P1;HPM_P2
2023/03/25 00:00:17;;;;;;;3.80;0.40;;;9.40;1.00;;;;;;5053704;28;20430;-57
2023/03/25 00:02:52;;;;;;;4.70;0.30;;;9.30;1.00;;;;;;5069058;28;20416;-58
2023/03/25 00:05:20;;;;;;;3.70;0.30;;;9.20;1.00;;;;;;5068114;28;20415;-57
2023/03/25 00:07:49;;;;;;;3.90;0.30;;;9.20;99.90;;;;;;5070966;28;20407;-57
2023/03/25 00:10:15;;;;;;;5.43;0.50;;;9.10;1.00;;;;;;5065964;28;20395;-57
2023/03/25 00:12:44;;;;;;;5.78;0.60;;;9.10;99.90;;;;;;5072658;28;20800;-57
2023/03/25 00:15:11;;;;;;;4.40;0.50;;;9.10;22.30;;;;;;5058426;28;20537;-62
2023/03/25 00:17:37;;;;;;;6.30;0.50;;;9.20;1.00;;;;;;5065284;28;20397;-57
2023/03/25 00:20:04;;;;;;;3.70;0.32;;;9.10;1.00;;;;;;5053152;28;20748;-57
2023/03/25 00:22:30;;;;;;;4.80;0.50;;;9.20;99.90;;;;;;5052446;28;20493;-57
2023/03/25 00:24:56;;;;;;;6.73;0.80;;;9.20;1.00;;;;;;5053203;28;20460;-57
2023/03/25 00:27:21;;;;;;;4.00;0.45;;;9.20;44.20;;;;;;5052720;28;20428;-57
2023/03/25 00:29:47;;;;;;;4.87;0.60;;;9.30;24.10;;;;;;5053006;28;20906;-57
2023/03/25 00:32:14;;;;;;;3.80;0.30;;;9.20;1.00;;;;;;5052252;28;20450;-62
2023/03/25 00:34:46;;;;;;;3.90;0.40;;;9.10;1.00;;;;;;5053158;28;20387;-57
2023/03/25 00:37:16;;;;;;;5.10;0.50;;;9.50;99.90;;;;;;5052710;28;20397;-62
2023/03/25 00:39:43;;;;;;;6.20;0.50;;;9.20;1.00;;;;;;5052919;28;20409;-59
2023/03/25 00:42:10;;;;;;;3.65;0.30;;;9.30;1.00;;;;;;5052700;28;20469;-63
2023/03/25 00:44:36;;;;;;;4.07;0.77;;;9.30;99.90;;;;;;5052065;28;20870;-58
2023/03/25 00:47:01;;;;;;;5.60;0.40;;;9.40;99.90;;;;;;5052933;28;20376;-57
2023/03/25 00:49:27;;;;;;;5.80;0.60;;;9.50;99.90;;;;;;5060899;28;20388;-57
2023/03/25 00:51:55;;;;;;;6.40;0.50;;;9.50;1.00;;;;;;5072142;28;20396;-59
2023/03/25 00:54:21;;;;;;;3.70;0.30;;;9.40;99.90;;;;;;5071777;28;20521;-57
2023/03/25 00:56:47;;;;;;;5.40;0.50;;;9.30;99.90;;;;;;5071798;28;21290;-59
2023/03/25 00:59:13;;;;;;;4.20;0.40;;;9.20;99.90;;;;;;5071322;28;20406;-62
2023/03/25 01:01:40;;;;;;;5.90;0.50;;;9.20;99.90;;;;;;5064423;28;20405;-57
2023/03/25 01:04:11;;;;;;;4.00;0.43;;;10.40;1.00;;;;;;5052364;28;20902;-57
2023/03/25 01:06:42;;;;;;;3.80;0.40;;;9.10;1.00;;;;;;5034475;28;21011;-57
2023/03/25 01:09:10;;;;;;;5.60;0.50;;;8.90;1.00;;;;;;5052254;28;20400;-57
2023/03/25 01:11:37;;;;;;;4.10;0.40;;;8.80;99.90;;;;;;5065728;28;20388;-57
2023/03/25 01:14:06;;;;;;;4.28;0.57;;;10.00;99.90;;;;;;5070025;28;20398;-57
2023/03/25 01:16:32;;;;;;;5.20;0.40;;;9.10;1.00;;;;;;5061626;28;20868;-57
2023/03/25 01:18:57;;;;;;;5.70;0.60;;;8.70;99.90;;;;;;5053599;28;20470;-57
2023/03/25 01:21:23;;;;;;;3.77;0.30;;;8.70;1.00;;;;;;5063362;28;20500;-57
2023/03/25 01:23:49;;;;;;;4.40;0.40;;;8.60;99.90;;;;;;5052102;28;20481;-58
2023/03/25 01:26:15;;;;;;;5.70;0.70;;;8.50;99.90;;;;;;5050764;28;20484;-58
2023/03/25 01:28:42;;;;;;;4.20;0.55;;;8.50;99.90;;;;;;5051461;28;20409;-57
2023/03/25 01:31:10;;;;;;;4.35;0.70;;;8.50;99.90;;;;;;5052064;28;20392;-57
2023/03/25 01:33:36;;;;;;;6.40;0.70;;;8.50;23.00;;;;;;5051762;28;20378;-57
2023/03/25 01:36:03;;;;;;;4.50;0.60;;;9.30;1.00;;;;;;5052082;28;20789;-57
2023/03/25 01:38:29;;;;;;;3.80;0.47;;;8.60;1.00;;;;;;5050826;28;20410;-57
2023/03/25 01:40:56;;;;;;;6.00;0.70;;;8.50;1.00;;;;;;5051636;28;20858;-58
2023/03/25 01:43:22;;;;;;;4.60;0.60;;;8.60;99.90;;;;;;5050997;28;20397;-57
2023/03/25 01:45:49;;;;;;;4.10;0.50;;;9.90;1.00;;;;;;5051832;28;20496;-57
2023/03/25 01:48:24;;;;;;;5.35;0.70;;;8.60;1.00;;;;;;5032957;28;20777;-57
2023/03/25 01:51:04;;;;;;;5.10;0.60;;;8.60;1.00;;;;;;5051127;28;20692;-57
2023/03/25 01:53:32;;;;;;;7.03;0.73;;;8.60;1.00;;;;;;5032931;28;20663;-57
2023/03/25 01:56:01;;;;;;;5.60;0.60;;;8.60;1.00;;;;;;5052218;28;20401;-57
2023/03/25 01:58:29;;;;;;;5.77;0.80;;;8.70;99.90;;;;;;5056863;28;20411;-57
2023/03/25 02:00:56;;;;;;;4.40;0.45;;;9.70;99.90;;;;;;5067723;28;20408;-57
2023/03/25 02:03:23;;;;;;;6.30;1.00;;;8.70;99.90;;;;;;5064815;28;20876;-57
2023/03/25 02:06:02;;;;;;;5.00;0.50;;;8.70;76.80;;;;;;5065089;28;20420;-57
2023/03/25 02:08:31;;;;;;;5.45;0.80;;;8.70;99.90;;;;;;5050465;28;20492;-57
2023/03/25 02:10:57;;;;;;;4.45;0.60;;;8.70;99.90;;;;;;5065105;28;20396;-57
2023/03/25 02:13:24;;;;;;;3.90;0.50;;;9.40;99.90;;;;;;5068142;28;20819;-57
2023/03/25 02:16:01;;;;;;;3.80;0.50;;;8.70;1.00;;;;;;5054060;28;20870;-58
2023/03/25 02:18:30;;;;;;;4.70;0.50;;;8.60;1.00;;;;;;5058729;28;20384;-57
2023/03/25 02:21:33;;;;;;;7.20;0.90;;;8.60;15.00;;;;;;5054760;28;20510;-57
2023/03/25 02:24:18;;;;;;;4.32;0.70;;;8.60;99.90;;;;;;5051087;28;20386;-57
2023/03/25 02:27:12;;;;;;;5.10;0.45;;;8.70;99.90;;;;;;5063238;28;20419;-58
2023/03/25 02:29:57;;;;;;;4.47;0.60;;;8.70;99.90;;;;;;5047955;28;20436;-57
2023/03/25 02:32:42;;;;;;;4.60;0.70;;;8.80;1.00;;;;;;5050724;28;20424;-57
2023/03/25 02:35:31;;;;;;;7.68;0.50;;;8.80;99.90;;;;;;5059042;28;20391;-57
2023/03/25 02:38:27;;;;;;;6.20;0.60;;;8.60;1.00;;;;;;5064240;28;20401;-57
2023/03/25 02:41:17;;;;;;;5.07;0.60;;;8.00;1.00;;;;;;5038613;28;20513;-56
2023/03/25 02:43:59;;;;;;;3.53;0.20;;;7.50;99.90;;;;;;5050206;28;20416;-55
2023/03/25 02:46:26;;;;;;;3.80;0.50;;;7.10;99.90;;;;;;5068601;28;20907;-56
2023/03/25 02:48:59;;;;;;;3.90;0.80;;;6.80;1.00;;;;;;5054163;28;20397;-55
2023/03/25 02:51:36;;;;;;;3.90;0.30;;;6.80;1.00;;;;;;5057114;28;20891;-55
2023/03/25 02:54:11;;;;;;;4.30;0.40;;;6.80;1.00;;;;;;5069647;28;20387;-56
2023/03/25 02:56:38;;;;;;;4.20;0.40;;;6.80;1.00;;;;;;5049396;28;20393;-56
2023/03/25 02:59:06;;;;;;;4.10;0.30;;;6.80;1.00;;;;;;5059001;28;20769;-56
2023/03/25 03:01:34;;;;;;;3.80;0.40;;;8.60;1.00;;;;;;5047204;28;20419;-56
2023/03/25 03:04:00;;;;;;;3.70;0.40;;;7.00;99.90;;;;;;5069384;28;20865;-58
2023/03/25 03:06:27;;;;;;;5.32;0.40;;;6.80;1.00;;;;;;5053377;28;20481;-56
2023/03/25 03:09:10;;;;;;;3.67;0.30;;;6.90;99.90;;;;;;5048409;28;20394;-58
2023/03/25 03:12:05;;;;;;;4.50;0.20;;;6.90;99.90;;;;;;5063545;28;20404;-57
2023/03/25 03:15:11;;;;;;;4.10;0.30;;;6.80;99.90;;;;;;5062808;28;20442;-58
2023/03/25 03:17:48;;;;;;;3.50;0.28;;;6.80;99.90;;;;;;5053077;28;20395;-56
2023/03/25 03:20:34;;;;;;;3.60;0.30;;;8.80;99.90;;;;;;5062445;28;20415;-60
2023/03/25 03:23:10;;;;;;;3.70;0.33;;;7.00;99.90;;;;;;5055260;28;20472;-56
2023/03/25 03:25:49;;;;;;;3.58;0.20;;;7.00;99.90;;;;;;5049257;28;20881;-56
2023/03/25 03:28:31;;;;;;;3.60;0.30;;;7.10;99.90;;;;;;5048916;28;20416;-60
2023/03/25 03:31:18;;;;;;;3.70;0.40;;;7.10;99.90;;;;;;5049940;28;20389;-56
2023/03/25 03:33:54;;;;;;;5.20;0.40;;;7.10;99.90;;;;;;5049713;28;20435;-58
2023/03/25 03:36:24;;;;;;;4.00;0.30;;;7.10;99.90;;;;;;5049007;28;20396;-58
2023/03/25 03:39:00;;;;;;;3.50;0.20;;;7.20;99.90;;;;;;5049037;28;20379;-58
2023/03/25 03:41:27;;;;;;;4.50;0.30;;;7.10;99.90;;;;;;5048697;28;20768;-55
2023/03/25 03:44:01;;;;;;;3.70;0.30;;;7.20;99.90;;;;;;5049673;28;20921;-55
2023/03/25 03:46:53;;;;;;;3.70;0.40;;;7.20;99.90;;;;;;5049047;28;20865;-58
2023/03/25 03:49:25;;;;;;;3.50;0.20;;;7.20;99.90;;;;;;5048951;28;20480;-58
2023/03/25 03:52:01;;;;;;;4.90;0.30;;;8.00;99.90;;;;;;5049795;28;20415;-58
2023/03/25 03:54:31;;;;;;;3.80;0.20;;;7.30;99.90;;;;;;5061870;28;20475;-59
2023/03/25 03:57:08;;;;;;;4.30;0.30;;;7.40;99.90;;;;;;5067334;28;20849;-59
2023/03/25 04:00:06;;;;;;;4.70;0.40;;;7.30;99.90;;;;;;5050249;28;20414;-58
2023/03/25 04:02:39;;;;;;;5.20;0.30;;;7.10;99.90;;;;;;5042650;28;20411;-57
2023/03/25 04:05:11;;;;;;;3.80;0.40;;;7.20;99.90;;;;;;5067168;28;20399;-55
2023/03/25 04:07:44;;;;;;;4.03;0.70;;;8.00;99.90;;;;;;5067054;28;20392;-55
2023/03/25 04:10:33;;;;;;;3.60;0.30;;;8.00;99.90;;;;;;5068755;28;20400;-56
2023/03/25 04:13:02;;;;;;;4.10;0.55;;;7.30;99.90;;;;;;5064496;28;20410;-55
2023/03/25 04:15:28;;;;;;;3.70;0.40;;;7.30;99.90;;;;;;5049628;28;20390;-58
2023/03/25 04:17:54;;;;;;;4.00;0.30;;;7.40;99.90;;;;;;5060415;28;20476;-57
2023/03/25 04:20:24;;;;;;;5.53;0.40;;;7.60;99.90;;;;;;5048579;28;20405;-57
2023/03/25 04:22:51;;;;;;;3.95;0.30;;;7.40;99.90;;;;;;5049510;28;20418;-58
2023/03/25 04:25:17;;;;;;;3.97;0.50;;;8.50;99.90;;;;;;5048370;28;20446;-58
2023/03/25 04:27:47;;;;;;;4.22;0.57;;;7.50;99.90;;;;;;5049583;28;20393;-58
2023/03/25 04:30:16;;;;;;;4.05;0.47;;;7.50;99.90;;;;;;5058733;28;20438;-63
2023/03/25 04:32:45;;;;;;;3.72;0.50;;;7.40;99.90;;;;;;5068566;28;20401;-58
2023/03/25 04:35:15;;;;;;;3.92;0.50;;;7.40;24.50;;;;;;5053428;28;20389;-58
2023/03/25 04:37:44;;;;;;;4.30;0.60;;;7.40;1.00;;;;;;5058150;28;20434;-55
2023/03/25 04:40:24;;;;;;;3.70;0.40;;;7.40;1.00;;;;;;5068471;28;20412;-58
2023/03/25 04:42:52;;;;;;;4.70;0.30;;;7.30;1.00;;;;;;5050083;28;20415;-58
2023/03/25 04:45:18;;;;;;;3.70;0.43;;;8.80;1.00;;;;;;5051794;28;20432;-58
2023/03/25 04:47:46;;;;;;;6.38;0.80;;;8.50;1.00;;;;;;5057276;28;20887;-58
2023/03/25 04:50:28;;;;;;;4.10;0.50;;;6.90;99.90;;;;;;5053926;28;20404;-63
2023/03/25 04:52:59;;;;;;;5.45;0.60;;;6.90;70.60;;;;;;5068456;28;20892;-59
2023/03/25 04:55:25;;;;;;;4.20;0.60;;;6.80;47.20;;;;;;5056130;28;20393;-58
2023/03/25 04:57:53;;;;;;;6.47;0.70;;;6.80;99.90;;;;;;5053324;28;20978;-59
2023/03/25 05:00:23;;;;;;;5.80;0.30;;;6.80;91.80;;;;;;5070259;28;20447;-58
2023/03/25 05:02:54;;;;;;;4.40;0.60;;;6.70;53.50;;;;;;5067950;28;20399;-58
2023/03/25 05:05:22;;;;;;;3.90;0.30;;;6.70;99.90;;;;;;5055715;28;20447;-58
2023/03/25 05:07:53;;;;;;;3.60;0.30;;;6.50;99.90;;;;;;5052257;28;20389;-58
2023/03/25 05:10:21;;;;;;;3.72;0.47;;;6.50;99.90;;;;;;5051435;28;20450;-58
2023/03/25 05:12:47;;;;;;;3.60;0.40;;;6.50;99.90;;;;;;5067364;28;20579;-58
2023/03/25 05:15:15;;;;;;;3.70;0.40;;;8.20;99.90;;;;;;5062126;28;20412;-62
2023/03/25 05:17:43;;;;;;;3.60;0.40;;;6.60;99.90;;;;;;5066457;28;20397;-58
2023/03/25 05:20:10;;;;;;;4.13;0.90;;;6.70;99.90;;;;;;5052985;28;20482;-58
2023/03/25 05:22:37;;;;;;;3.80;0.50;;;6.80;99.90;;;;;;5063446;28;21130;-58
2023/03/25 05:25:07;;;;;;;4.40;0.50;;;7.30;99.90;;;;;;5052160;28;20733;-61
2023/03/25 05:27:34;;;;;;;4.50;0.60;;;7.10;1.00;;;;;;5050985;28;20650;-58
2023/03/25 05:29:59;;;;;;;3.60;0.30;;;7.20;99.90;;;;;;5051253;28;20432;-57
2023/03/25 05:32:28;;;;;;;4.40;0.40;;;7.20;84.90;;;;;;5050764;28;20874;-58
2023/03/25 05:34:55;;;;;;;4.45;0.70;;;7.40;99.90;;;;;;5051633;28;20403;-58
2023/03/25 05:37:20;;;;;;;4.57;0.60;;;7.40;99.90;;;;;;5050814;28;20468;-58
2023/03/25 05:39:46;;;;;;;4.28;0.47;;;7.40;1.00;;;;;;5051438;28;20490;-55
2023/03/25 05:42:12;;;;;;;4.50;0.63;;;7.50;1.00;;;;;;5051324;28;20456;-58
2023/03/25 05:44:49;;;;;;;5.43;0.53;;;7.50;1.00;;;;;;5050780;28;20913;-58
2023/03/25 05:47:19;;;;;;;4.00;0.52;;;9.30;1.00;;;;;;5050413;28;20967;-63
2023/03/25 05:49:45;;;;;;;6.22;0.93;;;7.70;99.90;;;;;;5033539;28;20842;-57
2023/03/25 05:52:10;;;;;;;6.90;0.60;;;8.00;99.90;;;;;;5051195;28;20382;-58
2023/03/25 05:54:40;;;;;;;6.57;0.70;;;7.80;38.20;;;;;;5050251;28;20463;-58
2023/03/25 05:57:07;;;;;;;7.05;1.00;;;7.90;1.00;;;;;;5067219;28;20399;-58
2023/03/25 05:59:33;;;;;;;5.40;1.10;;;8.10;1.00;;;;;;5052709;28;20397;-56
2023/03/25 06:01:59;;;;;;;5.10;0.40;;;8.10;1.00;;;;;;5050549;28;20866;-55
2023/03/25 06:04:24;;;;;;;7.70;0.60;;;8.10;1.00;;;;;;5051036;28;20394;-55
2023/03/25 06:06:50;;;;;;;5.68;0.70;;;8.20;99.90;;;;;;5036472;28;20403;-56
2023/03/25 06:09:16;;;;;;;5.90;0.70;;;8.20;99.90;;;;;;5049790;28;20394;-56
2023/03/25 06:11:42;;;;;;;5.00;0.70;;;8.30;99.90;;;;;;5051140;28;20448;-56
2023/03/25 06:14:08;;;;;;;6.60;0.60;;;8.30;1.00;;;;;;5051405;28;20828;-55
2023/03/25 06:16:34;;;;;;;4.90;0.80;;;8.40;99.90;;;;;;5053295;28;20401;-57
2023/03/25 06:19:01;;;;;;;5.10;0.60;;;9.10;1.00;;;;;;5034485;28;20941;-55
2023/03/25 06:21:28;;;;;;;6.45;1.00;;;8.90;99.90;;;;;;5051682;28;20409;-55
2023/03/25 06:23:57;;;;;;;10.70;1.10;;;9.10;99.90;;;;;;5064241;28;20388;-55
2023/03/25 06:26:23;;;;;;;8.90;1.10;;;10.10;92.20;;;;;;5064654;28;20400;-56
2023/03/25 06:28:49;;;;;;;7.05;0.73;;;8.70;99.90;;;;;;5055465;28;20547;-56
2023/03/25 06:31:26;;;;;;;5.10;0.80;;;8.40;99.90;;;;;;5065044;28;20896;-61
2023/03/25 06:33:53;;;;;;;5.30;0.70;;;8.50;1.00;;;;;;5059507;28;20480;-56
2023/03/25 06:36:19;;;;;;;7.43;1.00;;;9.30;1.00;;;;;;5055388;28;20388;-55
2023/03/25 06:38:47;;;;;;;6.88;0.80;;;8.50;1.00;;;;;;5057092;28;20396;-56
2023/03/25 06:41:13;;;;;;;4.82;0.77;;;9.00;99.90;;;;;;5050150;28;20401;-57
2023/03/25 06:43:42;;;;;;;4.57;0.52;;;9.70;99.90;;;;;;5049483;28;20386;-56
2023/03/25 06:46:08;;;;;;;6.10;0.95;;;10.40;99.90;;;;;;5050060;28;20373;-56
2023/03/25 06:48:34;;;;;;;7.50;0.80;;;11.10;30.80;;;;;;5042384;28;20407;-57
2023/03/25 06:51:00;;;;;;;5.63;0.60;;;11.10;1.00;;;;;;5050165;28;20382;-56
2023/03/25 06:53:26;;;;;;;6.10;0.63;;;10.40;1.00;;;;;;5054113;28;20493;-56
2023/03/25 06:55:51;;;;;;;5.20;0.50;;;10.10;1.00;;;;;;5049212;28;22929;-59
2023/03/25 06:58:17;;;;;;;6.20;0.60;;;10.00;72.30;;;;;;5050124;28;20400;-63
2023/03/25 07:00:42;;;;;;;4.73;0.60;;;12.60;26.30;;;;;;5048870;28;20414;-57
2023/03/25 07:03:09;;;;;;;5.27;0.77;;;12.10;1.00;;;;;;5060607;28;20492;-57
2023/03/25 07:05:35;;;;;;;6.53;0.98;;;13.50;1.00;;;;;;5030288;28;20461;-57
2023/03/25 07:08:00;;;;;;;5.87;0.80;;;15.40;99.90;;;;;;5046722;28;20406;-60
2023/03/25 07:10:26;;;;;;;6.50;0.73;;;15.60;99.90;;;;;;5040460;28;20407;-58
2023/03/25 07:12:52;;;;;;;7.55;1.25;;;15.70;99.90;;;;;;5044364;28;20428;-60
2023/03/25 07:15:17;;;;;;;5.00;0.70;;;15.60;99.90;;;;;;5040988;28;20821;-61
2023/03/25 07:17:43;;;;;;;7.47;0.60;;;15.00;99.90;;;;;;5052267;28;20402;-57
2023/03/25 07:20:10;;;;;;;6.60;0.90;;;13.50;99.90;;;;;;5042921;28;20416;-58
2023/03/25 07:22:35;;;;;;;6.13;1.00;;;12.50;99.90;;;;;;5038405;28;20460;-56
2023/03/25 07:25:01;;;;;;;4.30;0.43;;;11.60;99.90;;;;;;5048611;28;20401;-56
2023/03/25 07:27:27;;;;;;;5.50;0.50;;;10.90;1.00;;;;;;5041535;28;20429;-56
2023/03/25 07:29:52;;;;;;;4.80;0.70;;;10.80;1.00;;;;;;5046418;28;20425;-59
2023/03/25 07:32:18;;;;;;;4.80;0.63;;;10.40;1.00;;;;;;5043300;28;20871;-61
2023/03/25 07:34:43;;;;;;;5.13;0.70;;;10.90;1.00;;;;;;5038740;28;20430;-57
2023/03/25 07:37:09;;;;;;;10.00;0.82;;;11.90;1.00;;;;;;5051357;28;20830;-57
2023/03/25 07:39:35;;;;;;;7.23;0.77;;;11.80;1.00;;;;;;5041600;28;20464;-57
2023/03/25 07:42:00;;;;;;;6.10;0.70;;;11.50;1.00;;;;;;5040830;28;20398;-56
2023/03/25 07:44:26;;;;;;;4.70;0.60;;;11.10;1.00;;;;;;5045348;28;20472;-57
2023/03/25 07:46:52;;;;;;;4.50;0.40;;;10.70;1.00;;;;;;5036904;28;20790;-59
2023/03/25 07:49:18;;;;;;;6.20;0.50;;;10.50;1.00;;;;;;5037211;28;20863;-61
2023/03/25 07:51:44;;;;;;;4.40;0.50;;;10.40;1.00;;;;;;5043727;28;20409;-57
2023/03/25 07:54:10;;;;;;;4.20;0.40;;;10.20;1.00;;;;;;5039025;28;20779;-57
2023/03/25 07:56:37;;;;;;;5.70;0.60;;;10.60;1.00;;;;;;5048328;28;20394;-57
2023/03/25 07:59:03;;;;;;;6.47;0.60;;;10.90;99.90;;;;;;5043651;28;20395;-57
2023/03/25 08:01:29;;;;;;;4.85;0.65;;;11.10;35.40;;;;;;5041619;28;20740;-57
2023/03/25 08:03:56;;;;;;;4.50;0.40;;;11.70;1.00;;;;;;5045487;28;20468;-56
2023/03/25 08:06:21;;;;;;;5.10;0.60;;;11.70;1.00;;;;;;5055293;28;20796;-56
2023/03/25 08:08:47;;;;;;;4.88;0.70;;;11.50;1.00;;;;;;5058132;28;20390;-56
2023/03/25 08:11:12;;;;;;;5.80;0.50;;;11.60;1.00;;;;;;5028596;28;20476;-57
2023/03/25 08:13:38;;;;;;;6.30;0.70;;;11.30;1.00;;;;;;5031708;28;20747;-57
2023/03/25 08:16:10;;;;;;;4.72;0.52;;;11.30;1.00;;;;;;5034223;28;20462;-58
2023/03/25 08:18:36;;;;;;;6.60;1.00;;;11.50;1.00;;;;;;5037649;28;20385;-56
2023/03/25 08:21:02;;;;;;;5.20;0.60;;;12.00;1.00;;;;;;5043846;28;20419;-57
2023/03/25 08:23:27;;;;;;;4.32;0.52;;;12.60;1.00;;;;;;5028677;28;20879;-56
2023/03/25 08:25:53;;;;;;;5.30;0.70;;;12.30;1.00;;;;;;5030180;28;20863;-58
2023/03/25 08:28:23;;;;;;;6.60;1.00;;;12.80;1.00;;;;;;5031998;28;20406;-62
2023/03/25 08:30:53;;;;;;;5.20;0.70;;;11.90;1.00;;;;;;5055086;28;20413;-59
2023/03/25 08:33:20;;;;;;;4.85;0.82;;;13.20;1.00;;;;;;5035999;28;20951;-59
2023/03/25 08:35:46;;;;;;;4.60;0.50;;;12.80;1.00;;;;;;5034525;28;20440;-59
2023/03/25 08:38:12;;;;;;;4.28;0.40;;;13.10;1.00;;;;;;5041217;28;20478;-56
2023/03/25 08:40:41;;;;;;;6.53;0.50;;;13.50;1.00;;;;;;5037768;28;20815;-56
2023/03/25 08:43:07;;;;;;;4.50;0.50;;;12.90;1.00;;;;;;5037104;28;20493;-56
2023/03/25 08:45:35;;;;;;;4.40;0.50;;;12.60;1.00;;;;;;5031036;28;20935;-57
2023/03/25 08:48:02;;;;;;;6.10;0.70;;;11.90;1.00;;;;;;5034807;28;20464;-56
2023/03/25 08:50:29;;;;;;;4.80;0.50;;;11.70;1.00;;;;;;5031800;28;20403;-56
2023/03/25 08:52:57;;;;;;;4.97;0.60;;;11.10;1.00;;;;;;5032319;28;20783;-56
2023/03/25 08:55:23;;;;;;;5.93;0.60;;;10.40;99.90;;;;;;5041786;28;20902;-56
2023/03/25 08:57:49;;;;;;;6.53;0.50;;;10.00;1.00;;;;;;5040415;28;20491;-57
2023/03/25 09:00:15;;;;;;;5.10;0.30;;;9.70;1.00;;;;;;5031740;28;20494;-58
2023/03/25 09:02:42;;;;;;;6.28;0.57;;;9.50;99.90;;;;;;5034966;28;20391;-56
2023/03/25 09:05:09;;;;;;;3.80;0.20;;;9.40;99.90;;;;;;5045831;28;20374;-56
2023/03/25 09:07:36;;;;;;;3.90;0.30;;;9.30;90.70;;;;;;5056390;28;20388;-56
2023/03/25 09:10:03;;;;;;;3.80;0.20;;;10.50;99.90;;;;;;5057087;28;20413;-56
2023/03/25 09:12:29;;;;;;;4.00;0.20;;;9.40;50.80;;;;;;5040806;28;20406;-56
2023/03/25 09:14:54;;;;;;;3.97;0.30;;;9.40;99.90;;;;;;5037665;28;20395;-56
2023/03/25 09:17:20;;;;;;;3.80;0.30;;;10.20;1.00;;;;;;5038647;28;20780;-58
2023/03/25 09:19:46;;;;;;;3.83;0.20;;;11.00;99.90;;;;;;5044440;28;20469;-57
2023/03/25 09:22:12;;;;;;;3.90;0.30;;;11.40;99.90;;;;;;5042263;28;20843;-56
2023/03/25 09:24:39;;;;;;;4.10;0.30;;;11.10;99.90;;;;;;5035750;28;20431;-56
2023/03/25 09:27:06;;;;;;;4.82;0.40;;;10.70;1.00;;;;;;5047643;28;20405;-56
2023/03/25 09:29:31;;;;;;;3.90;0.20;;;11.80;99.90;;;;;;5037879;28;20803;-56
2023/03/25 09:31:58;;;;;;;5.00;0.40;;;12.00;99.90;;;;;;5031466;28;20391;-56
2023/03/25 09:34:25;;;;;;;4.20;0.50;;;12.80;99.90;;;;;;5033233;28;20860;-57
2023/03/25 09:36:51;;;;;;;4.30;0.40;;;13.80;1.00;;;;;;5034346;28;20386;-57
2023/03/25 09:39:17;;;;;;;4.00;0.20;;;14.00;1.00;;;;;;5036676;28;20420;-62
2023/03/25 09:42:26;;;;;;;4.20;0.30;;;14.10;1.00;;;;;;5056789;28;20412;-57
2023/03/25 09:44:55;;;;;;;4.55;0.50;;;13.50;1.00;;;;;;5050359;28;20393;-57
2023/03/25 09:47:23;;;;;;;4.40;0.47;;;12.60;1.00;;;;;;5050224;28;20405;-57
2023/03/25 09:49:55;;;;;;;4.57;0.30;;;12.00;1.00;;;;;;5057464;28;20398;-57
2023/03/25 09:52:26;;;;;;;4.10;0.30;;;11.80;1.00;;;;;;5052128;28;20389;-60
2023/03/25 09:54:57;;;;;;;4.30;0.40;;;11.70;1.00;;;;;;5055507;28;20475;-58
2023/03/25 09:57:29;;;;;;;4.10;0.30;;;11.70;1.00;;;;;;5038986;28;20941;-57
2023/03/25 09:59:57;;;;;;;4.70;0.50;;;11.50;1.00;;;;;;5030404;28;20918;-56
2023/03/25 10:02:45;;;;;;;4.00;0.30;;;11.70;99.90;;;;;;5044935;28;20411;-57
2023/03/25 10:05:29;;;;;;;4.00;0.35;;;12.00;1.00;;;;;;5038164;28;20403;-57
2023/03/25 10:08:04;;;;;;;4.60;0.43;;;11.90;1.00;;;;;;5034979;28;20412;-57
2023/03/25 10:10:38;;;;;;;4.40;0.40;;;11.70;1.00;;;;;;5031786;28;20453;-57
2023/03/25 10:13:43;;;;;;;3.95;0.30;;;11.70;1.00;;;;;;5036966;28;20389;-57
2023/03/25 10:16:17;;;;;;;5.68;1.20;;;11.80;99.90;;;;;;5041839;28;20505;-58
2023/03/25 10:19:10;;;;;;;3.90;0.30;;;11.50;66.20;;;;;;5040283;28;20401;-58
2023/03/25 10:22:10;;;;;;;4.20;0.30;;;11.10;99.90;;;;;;5017916;28;20437;-58
2023/03/25 10:24:58;;;;;;;5.10;0.80;;;11.10;99.90;;;;;;5042180;28;20672;-57
2023/03/25 10:27:41;;;;;;;3.90;0.30;;;11.30;99.90;;;;;;5055629;28;20405;-58
2023/03/25 10:30:21;;;;;;;5.50;0.30;;;11.10;1.00;;;;;;5054951;28;20420;-58
2023/03/25 10:32:52;;;;;;;4.20;0.38;;;11.20;2.80;;;;;;5049996;28;20480;-57
2023/03/25 10:35:28;;;;;;;3.90;0.30;;;11.30;85.90;;;;;;5046775;28;20865;-58
2023/03/25 10:37:59;;;;;;;4.70;0.40;;;11.30;51.60;;;;;;5041223;28;20492;-58
2023/03/25 10:40:43;;;;;;;3.90;0.30;;;11.10;99.90;;;;;;5038981;28;20428;-58
2023/03/25 10:43:23;;;;;;;3.90;0.30;;;10.80;99.90;;;;;;5050196;28;20571;-58
2023/03/25 10:45:51;;;;;;;4.10;0.40;;;10.70;1.00;;;;;;5046002;28;20526;-57
2023/03/25 10:48:28;;;;;;;4.30;0.60;;;10.40;1.00;;;;;;5035645;28;20899;-63
2023/03/25 10:51:13;;;;;;;3.70;0.20;;;10.80;51.80;;;;;;5031321;28;20951;-58
2023/03/25 10:53:41;;;;;;;6.40;0.50;;;10.50;99.90;;;;;;5046141;28;20417;-58
2023/03/25 10:56:12;;;;;;;4.43;0.65;;;10.90;99.90;;;;;;5047943;28;20885;-57
2023/03/25 10:58:39;;;;;;;6.60;0.60;;;11.30;99.90;;;;;;5043716;28;20413;-57
2023/03/25 11:01:14;;;;;;;4.30;0.40;;;12.20;1.00;;;;;;5038487;28;20820;-57
2023/03/25 11:03:41;;;;;;;4.60;0.35;;;12.60;99.90;;;;;;5042103;28;20438;-57
2023/03/25 11:06:23;;;;;;;5.60;1.08;;;12.20;99.90;;;;;;5058694;28;20509;-63
2023/03/25 11:09:26;;;;;;;7.05;1.55;;;12.00;1.00;;;;;;5055818;28;20405;-62
2023/03/25 11:11:53;;;;;;;4.30;0.80;;;12.00;1.00;;;;;;5041303;28;20404;-63
2023/03/25 11:14:25;;;;;;;4.28;0.52;;;12.30;1.00;;;;;;5042487;28;20805;-61
2023/03/25 11:17:01;;;;;;;4.85;0.60;;;13.20;1.00;;;;;;5069004;28;20415;-64
2023/03/25 11:19:39;;;;;;;5.60;0.70;;;13.20;1.00;;;;;;5059762;28;20489;-63
2023/03/25 11:22:21;;;;;;;5.22;0.57;;;13.20;1.00;;;;;;5049431;28;20473;-63
2023/03/25 11:24:53;;;;;;;7.15;0.80;;;12.80;1.00;;;;;;5049263;28;20511;-63
2023/03/25 11:27:22;;;;;;;5.30;0.90;;;12.80;1.00;;;;;;5030142;28;20501;-63
2023/03/25 11:30:01;;;;;;;4.50;0.40;;;13.00;1.00;;;;;;5044616;28;20963;-64
2023/03/25 11:32:36;;;;;;;4.63;0.52;;;13.50;1.00;;;;;;5049666;28;20747;-65
2023/03/25 11:35:13;;;;;;;4.60;0.50;;;13.70;1.00;;;;;;5048513;28;20389;-66
2023/03/25 11:37:52;;;;;;;8.10;0.70;;;13.90;1.00;;;;;;5039966;28;20407;-66
2023/03/25 11:40:19;;;;;;;4.30;0.40;;;14.20;1.00;;;;;;5054136;28;20415;-62
2023/03/25 11:42:51;;;;;;;4.90;0.57;;;14.20;1.00;;;;;;5047881;28;20487;-65
2023/03/25 11:45:25;;;;;;;5.10;0.50;;;14.10;1.00;;;;;;5043653;28;20377;-64
2023/03/25 11:47:52;;;;;;;4.95;0.82;;;13.60;99.90;;;;;;5055414;28;20484;-64
2023/03/25 11:50:27;;;;;;;5.00;0.60;;;13.50;99.90;;;;;;5048564;28;20400;-62
2023/03/25 11:52:58;;;;;;;4.65;0.70;;;13.40;99.90;;;;;;5052718;28;20419;-65
2023/03/25 11:55:27;;;;;;;4.70;0.60;;;14.80;99.90;;;;;;5048628;28;20488;-64
2023/03/25 11:57:58;;;;;;;5.00;0.70;;;13.40;99.90;;;;;;5049940;28;20810;-64
2023/03/25 12:00:35;;;;;;;5.00;1.10;;;13.20;99.90;;;;;;5045099;28;20419;-65
2023/03/25 12:03:13;;;;;;;5.25;0.73;;;13.10;99.90;;;;;;5053278;28;20406;-65
2023/03/25 12:05:40;;;;;;;4.20;0.50;;;13.00;99.90;;;;;;5047644;28;20398;-63
2023/03/25 12:08:15;;;;;;;4.60;0.40;;;12.60;99.90;;;;;;5041583;28;20411;-64
2023/03/25 12:10:52;;;;;;;5.47;0.40;;;12.70;99.90;;;;;;5045340;28;20584;-64
2023/03/25 12:13:30;;;;;;;4.60;0.30;;;13.10;99.90;;;;;;5058601;28;20416;-61
2023/03/25 12:16:18;;;;;;;4.70;0.45;;;13.20;99.90;;;;;;5049029;28;20494;-64
2023/03/25 12:19:06;;;;;;;5.10;0.40;;;13.00;99.90;;;;;;5055267;28;20425;-64
2023/03/25 12:21:37;;;;;;;5.10;0.30;;;13.40;99.90;;;;;;5042333;28;20418;-64
2023/03/25 12:24:24;;;;;;;4.50;0.50;;;13.70;99.90;;;;;;5037608;28;20407;-64
2023/03/25 12:26:55;;;;;;;4.30;0.40;;;13.70;99.90;;;;;;5051917;28;20401;-64
2023/03/25 12:29:35;;;;;;;4.10;0.32;;;13.80;99.90;;;;;;5058912;28;20466;-61
2023/03/25 12:32:19;;;;;;;5.20;0.50;;;13.90;99.90;;;;;;5050278;28;20416;-66
2023/03/25 12:35:07;;;;;;;9.50;0.90;;;13.70;99.90;;;;;;5051763;28;20411;-65
2023/03/25 12:37:51;;;;;;;5.40;0.40;;;13.30;99.90;;;;;;5046878;28;20392;-64
2023/03/25 12:40:29;;;;;;;5.20;0.40;;;12.60;99.90;;;;;;5051286;28;20417;-65
2023/03/25 12:43:08;;;;;;;4.50;0.40;;;12.90;99.90;;;;;;5052662;28;20409;-65
2023/03/25 12:46:20;;;;;;;4.45;0.55;;;11.30;1.00;;;;;;5050685;28;20390;-65
2023/03/25 12:49:07;;;;;;;4.00;0.30;;;10.90;99.90;;;;;;5048194;28;20403;-63
2023/03/25 12:51:54;;;;;;;4.28;0.40;;;11.40;99.90;;;;;;5035086;28;20409;-65
2023/03/25 12:54:34;;;;;;;4.03;0.30;;;11.90;99.90;;;;;;5045641;28;20884;-61
2023/03/25 12:57:27;;;;;;;4.30;0.40;;;12.10;1.00;;;;;;5046649;28;20452;-65
2023/03/25 13:00:17;;;;;;;4.47;0.40;;;12.50;1.00;;;;;;5038628;28;20386;-65
2023/03/25 13:02:54;;;;;;;4.00;0.20;;;12.90;1.00;;;;;;5041313;28;20401;-68
2023/03/25 13:05:31;;;;;;;4.00;0.30;;;12.80;1.00;;;;;;5045830;28;20400;-63
2023/03/25 13:08:02;;;;;;;4.30;0.40;;;12.90;1.00;;;;;;5036703;28;20430;-71
2023/03/25 13:10:32;;;;;;;4.80;0.40;;;13.10;1.00;;;;;;5037779;28;20412;-70
2023/03/25 13:13:00;;;;;;;4.10;0.40;;;13.10;1.00;;;;;;5037548;28;20381;-66
2023/03/25 13:15:34;;;;;;;4.20;0.40;;;13.00;1.00;;;;;;5040752;28;20388;-66
2023/03/25 13:18:10;;;;;;;4.50;0.40;;;13.10;1.00;;;;;;5059454;28;20428;-68
2023/03/25 13:20:50;;;;;;;4.50;0.50;;;13.20;1.00;;;;;;5037951;28;20445;-68